createdAt,value
2023-01-15T00:02:19.671Z,4.22
2023-01-15T00:04:51.495Z,4.21
2023-01-15T00:07:19.660Z,4.15
2023-01-15T00:09:47.796Z,4.10
2023-01-15T00:12:15.660Z,4.11
2023-01-15T00:14:43.739Z,4.15
2023-01-15T00:17:11.699Z,4.15
2023-01-15T00:19:40.563Z,4.15
2023-01-15T00:22:08.620Z,4.19
2023-01-15T00:24:55.420Z,4.23
2023-01-15T00:27:39.049Z,4.27
2023-01-15T00:30:13.251Z,4.33
2023-01-15T00:32:43.290Z,4.38
2023-01-15T00:35:19.919Z,4.41
2023-01-15T00:37:48.135Z,4.40
2023-01-15T00:40:19.118Z,4.42
2023-01-15T00:42:54.099Z,4.46
2023-01-15T00:45:23.371Z,4.49
2023-01-15T00:47:51.911Z,4.49
2023-01-15T00:50:20.205Z,4.46
2023-01-15T00:52:48.625Z,4.45
2023-01-15T00:55:16.799Z,4.43
2023-01-15T00:57:45.083Z,4.40
2023-01-15T01:00:13.562Z,4.37
2023-01-15T01:02:41.662Z,4.34
2023-01-15T01:05:10.033Z,4.33
2023-01-15T01:07:38.326Z,4.34
2023-01-15T01:10:07.517Z,4.38
2023-01-15T01:12:37.956Z,4.40
2023-01-15T01:15:07.451Z,4.42
2023-01-15T01:17:38.521Z,4.43
2023-01-15T01:20:07.820Z,4.44
2023-01-15T01:22:35.833Z,4.45
2023-01-15T01:25:04.705Z,4.42
2023-01-15T01:27:33.040Z,4.38
2023-01-15T01:30:01.362Z,4.34
2023-01-15T01:32:29.309Z,4.35
2023-01-15T01:34:58.199Z,4.34
2023-01-15T01:37:26.282Z,4.31
2023-01-15T01:39:55.284Z,4.29
2023-01-15T01:42:23.791Z,4.29
2023-01-15T01:44:51.830Z,4.28
2023-01-15T01:47:23.426Z,4.26
2023-01-15T01:49:56.924Z,4.26
2023-01-15T01:52:29.705Z,4.30
2023-01-15T01:54:58.348Z,4.34
2023-01-15T01:57:26.676Z,4.39
2023-01-15T01:59:57.175Z,4.44
2023-01-15T02:02:26.142Z,4.42
2023-01-15T02:04:54.530Z,4.39
2023-01-15T02:07:22.449Z,4.36
2023-01-15T02:09:51.315Z,4.33
2023-01-15T02:12:23.043Z,4.32
2023-01-15T02:15:03.343Z,4.29
2023-01-15T02:17:54.314Z,4.25
2023-01-15T02:20:35.665Z,4.21
2023-01-15T02:23:15.856Z,4.18
2023-01-15T02:25:58.463Z,4.18
2023-01-15T02:28:44.937Z,4.23
2023-01-15T02:31:19.966Z,4.26
2023-01-15T02:34:10.706Z,4.30
2023-01-15T02:36:44.835Z,4.32
2023-01-15T02:39:21.729Z,4.32
2023-01-15T02:41:54.360Z,4.31
2023-01-15T02:44:29.833Z,4.30
2023-01-15T02:46:59.857Z,4.31
2023-01-15T02:49:28.944Z,4.31
2023-01-15T02:52:15.693Z,4.31
2023-01-15T02:54:50.493Z,4.31
2023-01-15T02:57:22.998Z,4.28
2023-01-15T02:59:57.579Z,4.22
2023-01-15T03:02:33.400Z,4.17
2023-01-15T03:05:32.699Z,4.14
2023-01-15T03:08:05.355Z,4.11
2023-01-15T03:10:37.951Z,4.12
2023-01-15T03:13:07.426Z,4.15
2023-01-15T03:16:32.676Z,4.18
2023-01-15T03:19:18.356Z,4.20
2023-01-15T03:22:05.204Z,4.21
2023-01-15T03:24:40.663Z,4.25
2023-01-15T03:27:10.663Z,4.30
2023-01-15T03:29:45.046Z,4.32
2023-01-15T03:32:14.997Z,4.32
2023-01-15T03:34:54.970Z,4.32
2023-01-15T03:37:27.588Z,4.35
2023-01-15T03:39:58.387Z,4.35
2023-01-15T03:43:10.548Z,4.34
2023-01-15T03:45:42.697Z,4.32
2023-01-15T03:48:20.805Z,4.30
2023-01-15T03:51:07.649Z,4.31
2023-01-15T03:53:44.002Z,4.31
2023-01-15T03:56:23.650Z,4.30
2023-01-15T03:59:02.569Z,4.27
2023-01-15T04:01:45.779Z,4.25
2023-01-15T04:04:15.809Z,4.24
2023-01-15T04:06:45.234Z,4.22
2023-01-15T04:09:16.077Z,4.19
2023-01-15T04:11:47.291Z,4.20
2023-01-15T04:14:15.896Z,4.20
2023-01-15T04:16:50.770Z,4.24
2023-01-15T04:19:19.095Z,4.26
2023-01-15T04:21:58.709Z,4.24
2023-01-15T04:24:27.096Z,4.25
2023-01-15T04:26:55.301Z,4.27
2023-01-15T04:29:23.973Z,4.27
2023-01-15T04:31:57.608Z,4.26
2023-01-15T04:34:27.542Z,4.23
2023-01-15T04:36:57.147Z,4.13
2023-01-15T04:39:25.201Z,4.04
2023-01-15T04:42:12.018Z,3.94
2023-01-15T04:44:40.201Z,3.88
2023-01-15T04:47:08.926Z,3.85
2023-01-15T04:49:37.120Z,3.82
2023-01-15T04:52:05.885Z,3.78
2023-01-15T04:54:34.118Z,3.79
2023-01-15T04:57:02.392Z,3.79
2023-01-15T04:59:30.506Z,3.77
2023-01-15T05:02:04.227Z,3.78
2023-01-15T05:04:35.464Z,3.78
2023-01-15T05:07:04.813Z,3.77
2023-01-15T05:09:33.256Z,3.76
2023-01-15T05:12:02.031Z,3.73
2023-01-15T05:14:30.335Z,3.69
2023-01-15T05:17:01.583Z,3.66
2023-01-15T05:19:29.742Z,3.60
2023-01-15T05:21:57.953Z,3.53
2023-01-15T05:24:26.179Z,3.45
2023-01-15T05:26:55.381Z,3.34
2023-01-15T05:29:24.329Z,3.22
2023-01-15T05:31:52.736Z,3.11
2023-01-15T05:34:20.771Z,3.00
2023-01-15T05:36:49.341Z,2.88
2023-01-15T05:39:17.619Z,2.79
2023-01-15T05:41:51.869Z,2.70
2023-01-15T05:44:25.924Z,2.62
2023-01-15T05:47:00.467Z,2.55
2023-01-15T05:49:31.554Z,2.48
2023-01-15T05:52:01.522Z,2.42
2023-01-15T05:54:32.636Z,2.39
2023-01-15T05:57:02.040Z,2.37
2023-01-15T05:59:31.477Z,2.36
2023-01-15T06:02:00.230Z,2.34
2023-01-15T06:04:28.485Z,2.30
2023-01-15T06:06:57.585Z,2.26
2023-01-15T06:09:28.138Z,2.21
2023-01-15T06:11:57.639Z,2.13
2023-01-15T06:14:25.980Z,2.08
2023-01-15T06:16:54.179Z,2.03
2023-01-15T06:19:22.473Z,2.00
2023-01-15T06:21:50.495Z,1.98
2023-01-15T06:24:20.282Z,1.97
2023-01-15T06:26:48.760Z,1.97
2023-01-15T06:29:19.137Z,1.98
2023-01-15T06:31:48.526Z,1.99
2023-01-15T06:34:16.771Z,2.02
2023-01-15T06:36:45.311Z,2.10
2023-01-15T06:39:13.452Z,2.22
2023-01-15T06:42:00.086Z,2.35
2023-01-15T06:44:46.826Z,2.47
2023-01-15T06:47:21.190Z,2.61
2023-01-15T06:49:52.057Z,2.73
2023-01-15T06:52:24.719Z,2.85
2023-01-15T06:54:53.233Z,2.93
2023-01-15T06:57:22.329Z,2.94
2023-01-15T06:59:51.585Z,2.97
2023-01-15T07:02:21.827Z,3.00
2023-01-15T07:04:51.108Z,3.00
2023-01-15T07:07:20.696Z,3.01
2023-01-15T07:09:49.643Z,3.05
2023-01-15T07:12:18.593Z,3.08
2023-01-15T07:14:47.291Z,3.13
2023-01-15T07:17:15.703Z,3.17
2023-01-15T07:19:44.528Z,3.20
2023-01-15T07:22:13.151Z,3.23
2023-01-15T07:24:41.560Z,3.27
2023-01-15T07:27:09.699Z,3.32
2023-01-15T07:29:38.108Z,3.42
2023-01-15T07:32:06.326Z,3.55
2023-01-15T07:34:34.532Z,3.67
2023-01-15T07:37:02.704Z,3.79
2023-01-15T07:39:31.995Z,3.88
2023-01-15T07:42:19.049Z,3.94
2023-01-15T07:45:05.715Z,4.04
2023-01-15T07:47:52.719Z,4.17
2023-01-15T07:50:24.006Z,4.22
2023-01-15T07:52:53.396Z,4.25
2023-01-15T07:55:22.829Z,4.29
2023-01-15T07:57:52.491Z,4.26
2023-01-15T08:00:23.645Z,4.17
2023-01-15T08:02:52.121Z,4.17
2023-01-15T08:05:20.431Z,4.20
2023-01-15T08:07:50.353Z,4.22
2023-01-15T08:10:19.816Z,4.15
2023-01-15T08:13:19.530Z,4.17
2023-01-15T08:15:47.610Z,4.26
2023-01-15T08:18:15.588Z,4.33
2023-01-15T08:20:45.601Z,4.40
2023-01-15T08:23:15.031Z,4.45
2023-01-15T08:25:42.948Z,4.44
2023-01-15T08:28:14.328Z,4.46
2023-01-15T08:30:42.579Z,4.48
2023-01-15T08:33:10.970Z,4.48
2023-01-15T08:35:39.103Z,4.53
2023-01-15T08:38:08.084Z,4.59
2023-01-15T08:40:57.136Z,4.64
2023-01-15T08:43:30.675Z,4.70
2023-01-15T08:46:04.201Z,4.72
2023-01-15T08:48:33.486Z,4.78
2023-01-15T08:51:07.346Z,4.87
2023-01-15T08:53:37.953Z,4.89
2023-01-15T08:56:17.149Z,4.94
2023-01-15T08:58:47.377Z,5.02
2023-01-15T09:01:16.281Z,5.09
2023-01-15T09:03:44.746Z,5.24
2023-01-15T09:06:13.762Z,5.40
2023-01-15T09:08:41.773Z,5.47
2023-01-15T09:11:10.041Z,5.52
2023-01-15T09:13:38.443Z,5.61
2023-01-15T09:16:08.083Z,5.63
2023-01-15T09:18:39.708Z,5.66
2023-01-15T09:21:07.830Z,5.66
2023-01-15T09:23:36.420Z,5.70
2023-01-15T09:26:07.251Z,5.76
2023-01-15T09:28:35.978Z,5.83
2023-01-15T09:31:04.343Z,5.85
2023-01-15T09:33:32.517Z,5.93
2023-01-15T09:36:00.869Z,5.98
2023-01-15T09:38:29.103Z,6.07
2023-01-15T09:41:01.127Z,6.10
2023-01-15T09:43:51.185Z,6.04
2023-01-15T09:46:39.095Z,6.06
2023-01-15T09:49:22.309Z,6.13
2023-01-15T09:52:07.851Z,6.21
2023-01-15T09:55:04.913Z,6.19
2023-01-15T09:57:34.594Z,6.13
2023-01-15T10:00:06.884Z,6.09
2023-01-15T10:02:46.917Z,6.15
2023-01-15T10:05:20.123Z,6.16
2023-01-15T10:08:10.141Z,6.21
2023-01-15T10:10:46.934Z,6.26
2023-01-15T10:13:27.571Z,6.29
2023-01-15T10:15:58.368Z,6.34
2023-01-15T10:18:29.025Z,6.41
2023-01-15T10:21:30.883Z,6.47
2023-01-15T10:24:20.676Z,6.53
2023-01-15T10:26:57.767Z,6.52
2023-01-15T10:29:42.571Z,6.55
2023-01-15T10:33:03.612Z,6.55
2023-01-15T10:36:05.272Z,6.60
2023-01-15T10:39:22.676Z,6.60
2023-01-15T10:42:18.951Z,6.55
2023-01-15T10:45:16.809Z,6.53
2023-01-15T10:47:48.888Z,6.58
2023-01-15T10:50:26.074Z,6.63
2023-01-15T10:53:07.854Z,6.69
2023-01-15T10:55:45.215Z,6.68
2023-01-15T10:58:25.724Z,6.73
2023-01-15T11:01:00.942Z,6.77
2023-01-15T11:03:37.760Z,6.79
2023-01-15T11:06:08.393Z,6.85
2023-01-15T11:09:07.351Z,6.94
2023-01-15T11:12:01.823Z,6.96
2023-01-15T11:15:02.983Z,6.80
2023-01-15T11:17:52.407Z,6.65
2023-01-15T11:20:33.379Z,6.61
2023-01-15T11:23:10.718Z,6.66
2023-01-15T11:25:47.927Z,6.76
2023-01-15T11:28:18.545Z,6.82
2023-01-15T11:30:55.731Z,6.77
2023-01-15T11:33:25.227Z,6.73
2023-01-15T11:35:58.606Z,6.65
2023-01-15T11:38:42.699Z,6.62
2023-01-15T11:41:45.736Z,6.53
2023-01-15T11:44:34.611Z,6.42
2023-01-15T11:47:22.419Z,6.33
2023-01-15T11:50:14.425Z,6.35
2023-01-15T11:52:51.067Z,6.41
2023-01-15T11:55:22.635Z,6.40
2023-01-15T11:57:52.031Z,6.45
2023-01-15T12:00:30.771Z,6.48
2023-01-15T12:03:21.927Z,6.34
2023-01-15T12:05:58.451Z,6.16
2023-01-15T12:08:39.843Z,6.02
2023-01-15T12:11:29.742Z,5.97
2023-01-15T12:14:25.685Z,5.91
2023-01-15T12:17:31.014Z,5.82
2023-01-15T12:20:18.387Z,5.77
2023-01-15T12:23:23.322Z,5.80
2023-01-15T12:25:58.043Z,5.79
2023-01-15T12:29:01.854Z,5.84
2023-01-15T12:31:39.634Z,5.88
2023-01-15T12:34:19.980Z,5.83
2023-01-15T12:37:10.674Z,5.72
2023-01-15T12:39:52.346Z,5.69
2023-01-15T12:42:43.520Z,5.76
2023-01-15T12:45:25.676Z,5.84
2023-01-15T12:48:02.804Z,5.81
2023-01-15T12:50:37.052Z,5.78
2023-01-15T12:53:24.241Z,5.85
2023-01-15T12:56:08.855Z,5.88
2023-01-15T12:58:49.686Z,5.88
2023-01-15T13:01:29.463Z,5.86
2023-01-15T13:04:00.678Z,5.85
2023-01-15T13:06:29.539Z,5.81
2023-01-15T13:09:25.675Z,5.75
2023-01-15T13:11:54.729Z,5.63
2023-01-15T13:14:25.129Z,5.55
2023-01-15T13:17:06.028Z,5.49
2023-01-15T13:20:10.098Z,5.44
2023-01-15T13:23:08.065Z,5.38
2023-01-15T13:26:13.086Z,5.32
2023-01-15T13:28:53.491Z,5.29
2023-01-15T13:31:52.887Z,5.27
2023-01-15T13:34:50.794Z,5.23
2023-01-15T13:37:26.796Z,5.17
2023-01-15T13:40:05.080Z,5.13
2023-01-15T13:42:34.617Z,5.09
2023-01-15T13:45:37.389Z,5.05
2023-01-15T13:48:29.869Z,5.04
2023-01-15T13:51:01.992Z,5.01
2023-01-15T13:53:38.440Z,5.02
2023-01-15T13:56:15.443Z,5.03
2023-01-15T13:58:56.288Z,5.00
2023-01-15T14:01:36.323Z,4.92
2023-01-15T14:04:10.883Z,4.88
2023-01-15T14:06:51.397Z,4.84
2023-01-15T14:09:22.929Z,4.79
2023-01-15T14:12:22.593Z,4.73
2023-01-15T14:15:00.081Z,4.68
2023-01-15T14:18:03.457Z,4.64
2023-01-15T14:20:52.700Z,4.64
2023-01-15T14:23:33.159Z,4.62
2023-01-15T14:26:10.456Z,4.58
2023-01-15T14:28:57.710Z,4.53
2023-01-15T14:31:47.287Z,4.48
2023-01-15T14:34:28.911Z,4.41
2023-01-15T14:37:00.858Z,4.32
2023-01-15T14:39:41.994Z,4.24
2023-01-15T14:42:42.989Z,4.17
2023-01-15T14:45:11.497Z,4.11
2023-01-15T14:47:46.620Z,4.08
2023-01-15T14:50:28.321Z,4.06
2023-01-15T14:53:11.513Z,4.02
2023-01-15T14:55:58.702Z,3.98
2023-01-15T14:58:31.110Z,3.97
2023-01-15T15:01:05.248Z,3.96
2023-01-15T15:03:38.538Z,3.93
2023-01-15T15:06:12.645Z,3.89
2023-01-15T15:08:43.455Z,3.83
2023-01-15T15:11:47.949Z,3.77
2023-01-15T15:14:18.607Z,3.67
2023-01-15T15:16:50.984Z,3.59
2023-01-15T15:19:33.337Z,3.51
2023-01-15T15:22:06.325Z,3.45
2023-01-15T15:24:37.118Z,3.39
2023-01-15T15:27:31.717Z,3.33
2023-01-15T15:30:05.496Z,3.26
2023-01-15T15:32:40.348Z,3.22
2023-01-15T15:35:27.787Z,3.16
2023-01-15T15:38:00.143Z,3.11
2023-01-15T15:40:34.110Z,3.07
2023-01-15T15:43:35.845Z,3.01
2023-01-15T15:46:22.996Z,2.91
2023-01-15T15:48:58.087Z,2.83
2023-01-15T15:51:36.643Z,2.76
2023-01-15T15:54:16.482Z,2.68
2023-01-15T15:56:53.075Z,2.63
2023-01-15T15:59:37.026Z,2.57
2023-01-15T16:02:22.119Z,2.50
2023-01-15T16:04:53.303Z,2.44
2023-01-15T16:07:29.938Z,2.39
2023-01-15T16:10:02.593Z,2.34
2023-01-15T16:12:44.815Z,2.29
2023-01-15T16:15:19.832Z,2.26
2023-01-15T16:17:50.000Z,2.21
2023-01-15T16:20:21.027Z,2.17
2023-01-15T16:22:56.216Z,2.13
2023-01-15T16:25:37.694Z,2.05
2023-01-15T16:28:06.378Z,1.98
2023-01-15T16:30:35.738Z,1.91
2023-01-15T16:33:07.336Z,1.86
2023-01-15T16:35:37.495Z,1.83
2023-01-15T16:38:07.803Z,1.80
2023-01-15T16:40:39.239Z,1.78
2023-01-15T16:43:15.389Z,1.75
2023-01-15T16:46:18.237Z,1.74
2023-01-15T16:48:49.438Z,1.73
2023-01-15T16:51:35.517Z,1.71
2023-01-15T16:54:06.146Z,1.69
2023-01-15T16:56:40.742Z,1.67
2023-01-15T16:59:28.006Z,1.65
2023-01-15T17:02:22.051Z,1.63
2023-01-15T17:04:53.618Z,1.58
2023-01-15T17:07:27.950Z,1.53
2023-01-15T17:09:59.052Z,1.47
2023-01-15T17:12:40.331Z,1.42
2023-01-15T17:15:14.748Z,1.39
2023-01-15T17:17:49.305Z,1.35
2023-01-15T17:20:24.162Z,1.30
2023-01-15T17:22:52.640Z,1.24
2023-01-15T17:25:31.156Z,1.19
2023-01-15T17:28:01.183Z,1.15
2023-01-15T17:30:31.707Z,1.14
2023-01-15T17:33:01.914Z,1.14
2023-01-15T17:35:35.771Z,1.14
2023-01-15T17:38:06.948Z,1.15
2023-01-15T17:40:35.156Z,1.21
2023-01-15T17:43:04.103Z,1.27
2023-01-15T17:45:34.108Z,1.34
2023-01-15T17:48:04.110Z,1.38
2023-01-15T17:50:32.220Z,1.40
2023-01-15T17:53:00.685Z,1.41
2023-01-15T17:55:47.365Z,1.43
2023-01-15T17:58:35.248Z,1.40
2023-01-15T18:01:29.594Z,1.35
2023-01-15T18:04:16.545Z,1.29
2023-01-15T18:06:50.111Z,1.23
2023-01-15T18:09:20.172Z,1.17
2023-01-15T18:11:48.519Z,1.12
2023-01-15T18:14:16.801Z,1.06
2023-01-15T18:16:45.003Z,1.03
2023-01-15T18:19:13.376Z,1.01
2023-01-15T18:21:42.356Z,1.00
2023-01-15T18:24:12.759Z,1.01
2023-01-15T18:26:42.250Z,1.02
2023-01-15T18:29:11.053Z,1.01
2023-01-15T18:31:40.257Z,1.01
2023-01-15T18:34:09.079Z,1.02
2023-01-15T18:36:37.382Z,1.05
2023-01-15T18:39:08.460Z,1.07
2023-01-15T18:41:37.093Z,1.08
2023-01-15T18:44:31.667Z,1.09
2023-01-15T18:47:14.488Z,1.11
2023-01-15T18:49:44.236Z,1.11
2023-01-15T18:52:34.138Z,1.10
2023-01-15T18:55:04.783Z,1.07
2023-01-15T18:57:34.876Z,1.04
2023-01-15T19:00:05.445Z,1.02
2023-01-15T19:02:33.994Z,0.99
2023-01-15T19:05:02.259Z,0.96
2023-01-15T19:07:31.419Z,0.92
2023-01-15T19:09:59.479Z,0.87
2023-01-15T19:12:27.659Z,0.83
2023-01-15T19:15:16.819Z,0.78
2023-01-15T19:18:03.821Z,0.75
2023-01-15T19:20:32.686Z,0.74
2023-01-15T19:23:05.312Z,0.72
2023-01-15T19:25:40.590Z,0.72
2023-01-15T19:28:11.981Z,0.73
2023-01-15T19:30:40.573Z,0.76
2023-01-15T19:33:09.947Z,0.79
2023-01-15T19:35:39.730Z,0.82
2023-01-15T19:38:10.698Z,0.86
2023-01-15T19:40:42.159Z,0.89
2023-01-15T19:43:30.075Z,0.92
2023-01-15T19:46:16.952Z,0.94
2023-01-15T19:49:04.289Z,0.96
2023-01-15T19:51:51.147Z,0.92
2023-01-15T19:54:39.455Z,0.86
2023-01-15T19:57:08.171Z,0.81
2023-01-15T19:59:37.130Z,0.80
2023-01-15T20:02:05.297Z,0.77
2023-01-15T20:04:33.693Z,0.74
2023-01-15T20:07:01.886Z,0.69
2023-01-15T20:09:29.885Z,0.65
2023-01-15T20:12:16.389Z,0.61
2023-01-15T20:14:47.240Z,0.56
2023-01-15T20:17:15.919Z,0.56
2023-01-15T20:19:44.119Z,0.56
2023-01-15T20:22:13.349Z,0.57
2023-01-15T20:24:44.196Z,0.57
2023-01-15T20:27:13.811Z,0.57
2023-01-15T20:29:44.761Z,0.58
2023-01-15T20:32:13.136Z,0.58
2023-01-15T20:34:41.663Z,0.59
2023-01-15T20:37:10.483Z,0.59
2023-01-15T20:39:39.351Z,0.60
2023-01-15T20:42:26.009Z,0.61
2023-01-15T20:44:54.120Z,0.60
2023-01-15T20:47:46.281Z,0.59
2023-01-15T20:50:16.975Z,0.57
2023-01-15T20:52:47.467Z,0.55
2023-01-15T20:55:17.054Z,0.51
2023-01-15T20:57:45.614Z,0.46
2023-01-15T21:00:19.995Z,0.38
2023-01-15T21:02:48.793Z,0.32
2023-01-15T21:05:17.352Z,0.27
2023-01-15T21:07:45.455Z,0.21
2023-01-15T21:10:14.380Z,0.14
2023-01-15T21:12:42.902Z,0.09
2023-01-15T21:15:11.969Z,0.04
2023-01-15T21:17:40.250Z,-0.02
2023-01-15T21:20:11.092Z,-0.08
2023-01-15T21:22:40.105Z,-0.12
2023-01-15T21:25:13.458Z,-0.14
2023-01-15T21:27:41.484Z,-0.15
2023-01-15T21:30:11.524Z,-0.15
2023-01-15T21:32:41.332Z,-0.12
2023-01-15T21:35:10.763Z,-0.10
2023-01-15T21:37:39.703Z,-0.07
2023-01-15T21:40:09.695Z,-0.05
2023-01-15T21:43:13.263Z,-0.03
2023-01-15T21:45:41.720Z,-0.01
2023-01-15T21:48:09.888Z,0.00
2023-01-15T21:50:38.317Z,-0.01
2023-01-15T21:53:06.280Z,-0.00
2023-01-15T21:55:34.361Z,-0.01
2023-01-15T21:58:03.000Z,-0.06
2023-01-15T22:00:31.484Z,-0.10
2023-01-15T22:02:59.712Z,-0.14
2023-01-15T22:05:28.030Z,-0.18
2023-01-15T22:07:56.406Z,-0.25
2023-01-15T22:10:24.452Z,-0.29
2023-01-15T22:12:52.473Z,-0.34
2023-01-15T22:15:20.466Z,-0.38
2023-01-15T22:17:51.716Z,-0.44
2023-01-15T22:20:20.764Z,-0.49
2023-01-15T22:22:49.136Z,-0.53
2023-01-15T22:25:17.474Z,-0.55
2023-01-15T22:27:45.389Z,-0.55
2023-01-15T22:30:15.816Z,-0.55
2023-01-15T22:32:43.893Z,-0.54
2023-01-15T22:35:11.938Z,-0.52
2023-01-15T22:37:40.133Z,-0.52
2023-01-15T22:40:09.276Z,-0.50
2023-01-15T22:42:37.402Z,-0.49
2023-01-15T22:45:06.035Z,-0.47
2023-01-15T22:47:33.997Z,-0.43
2023-01-15T22:50:02.263Z,-0.42
2023-01-15T22:52:31.290Z,-0.40
2023-01-15T22:54:59.654Z,-0.40
2023-01-15T22:57:29.574Z,-0.41
2023-01-15T22:59:58.237Z,-0.43
2023-01-15T23:02:45.271Z,-0.46
2023-01-15T23:05:13.523Z,-0.52
2023-01-15T23:07:41.910Z,-0.56
2023-01-15T23:10:11.661Z,-0.60
2023-01-15T23:12:41.621Z,-0.65
2023-01-15T23:15:16.207Z,-0.69
2023-01-15T23:17:44.376Z,-0.73
2023-01-15T23:20:13.405Z,-0.75
2023-01-15T23:22:41.428Z,-0.75
2023-01-15T23:25:09.661Z,-0.77
2023-01-15T23:27:37.846Z,-0.79
2023-01-15T23:30:07.169Z,-0.80
2023-01-15T23:32:35.436Z,-0.78
2023-01-15T23:35:03.785Z,-0.76
2023-01-15T23:37:32.008Z,-0.72
2023-01-15T23:40:00.206Z,-0.69
2023-01-15T23:42:47.179Z,-0.65
2023-01-15T23:45:33.866Z,-0.58
2023-01-15T23:48:02.282Z,-0.53
2023-01-15T23:50:30.389Z,-0.49
2023-01-15T23:52:58.730Z,-0.43
2023-01-15T23:55:27.130Z,-0.40
2023-01-15T23:57:55.199Z,-0.40
